Language selection

Features

My Weather Profile Weather Topics  | 

Pacific - North Coast: Past 24 Hour Conditions

 

West Dixon Entrance - 46205

07:00 PM PDT 21 October 2019Buoy position: 54.17N 134.28W
Disclaimer

This table is a summary of hourly weather conditions for the past 24 hours.
Please note that these observations might not always be representative of weather conditions over their associated marine area.

Date / Time
(PDT)
Wind(knots) Wave height(m) Wave period(s) Pressure(kPa) Air tempC) Water tempC)
21 October 2019
19:00 WNW 31 gust 43 2.2 7.0 98.9 10 N/A
18:00 SSW 16 gust 19 2.1 6.0 98.9 11 N/A
17:00 SSW 19 gust 23 2.1 6.0 99.0 12 N/A
16:00 S 17 gust 22 2.2 12.0 99.1 12 N/A
15:00 ESE 22 gust 25 2.2 11.0 99.4 10 N/A
14:00 E 23 gust 27 2.2 10.0 99.6 10 N/A
13:00 E 22 gust 27 2.4 12.0 99.8 10 N/A
12:00 ESE 22 gust 25 2.5 11.0 100.0 10 N/A
11:00 ESE 19 gust 25 2.3 12.0 100.2 10 N/A
10:00 E 16 gust 19 2.4 12.0 100.3 10 N/A
9:00 E 17 gust 23 2.6 12.0 100.4 10 N/A
8:00 E 16 gust 19 2.4 12.0 100.4 10 N/A
7:00 ESE 16 gust 17 2.6 12.0 100.5 10 N/A
6:00 ESE 16 gust 19 2.6 12.0 100.6 10 N/A
5:00 E 13 gust 16 2.4 13.0 100.7 10 N/A
4:00 E 13 gust 17 2.5 13.0 100.8 10 N/A
3:00 E 8 gust 12 2.6 12.0 100.8 10 N/A
2:00 E 8 gust 12 3.1 12.0 100.9 10 N/A
1:00 ENE 8 gust 12 2.9 14.0 100.9 10 N/A
0:00 NE 6 gust 10 3.3 14.0 100.9 10 N/A
20 October 2019
23:00 NNE 8 gust 12 3.9 13.0 100.9 10 N/A
22:00 N 10 gust 13 3.4 14.0 100.9 10 N/A
21:00 N 12 gust 13 3.4 14.0 100.9 10 N/A
20:00 N 12 gust 16 3.8 14.0 100.8 10 N/A
19:00 N 13 gust 17 3.8 13.0 100.8 10 N/A

Zoom-in to make a selection

Map of Pacific - North Coast marine weather areas Middle Nomad - 46004 South Nomad - 46036 Dixon Entrance Central - 46145 South Moresby - 46147 Nanakwa Shoal - 46181 North Hecate Strait - 46183 North Nomad - 46184 South Hecate Strait - 46185 West Sea Otter - 46204 West Dixon Entrance - 46205 East Dellwood - 46207 West Moresby - 46208 Sartine Island Cape St.James Kindakun Rocks Langara Island Masset Municipal Airport Rose Spit Sandspit Airport Bella Bella Airport Bella Coola Airport Bonilla Island Cathedral Point Cumshewa Island Grey Islet Holland Rock Lucy Islands Lightstation Prince Rupert Airport
Legend:
buoy Buoy
land station Land Station

Pacific - North Coast Area

Another Region

What we are doing

Date modified: